sensor_id;sensor_type;location;lat;lon;timestamp;P1;durP1;ratioP1;P2;durP2;ratioP2
21315;SDS011;10817;55.820;13.030;2023-10-13T00:00:49;21.10;;;4.05;;
21315;SDS011;10817;55.820;13.030;2023-10-13T00:03:24;18.45;;;3.40;;
21315;SDS011;10817;55.820;13.030;2023-10-13T00:06:07;12.90;;;3.00;;
21315;SDS011;10817;55.820;13.030;2023-10-13T00:08:35;13.85;;;3.30;;
21315;SDS011;10817;55.820;13.030;2023-10-13T00:11:12;23.50;;;3.72;;
21315;SDS011;10817;55.820;13.030;2023-10-13T00:13:43;16.40;;;3.70;;
21315;SDS011;10817;55.820;13.030;2023-10-13T00:16:15;16.10;;;3.47;;
21315;SDS011;10817;55.820;13.030;2023-10-13T00:18:46;18.10;;;4.15;;
21315;SDS011;10817;55.820;13.030;2023-10-13T00:21:14;19.85;;;3.70;;
21315;SDS011;10817;55.820;13.030;2023-10-13T00:23:45;15.90;;;3.45;;
21315;SDS011;10817;55.820;13.030;2023-10-13T00:26:19;25.35;;;3.95;;
21315;SDS011;10817;55.820;13.030;2023-10-13T00:28:53;19.35;;;3.75;;
21315;SDS011;10817;55.820;13.030;2023-10-13T00:31:34;14.57;;;3.85;;
21315;SDS011;10817;55.820;13.030;2023-10-13T00:34:03;25.13;;;4.15;;
21315;SDS011;10817;55.820;13.030;2023-10-13T00:36:44;16.30;;;3.90;;
21315;SDS011;10817;55.820;13.030;2023-10-13T00:39:14;17.30;;;4.13;;
21315;SDS011;10817;55.820;13.030;2023-10-13T00:41:43;20.33;;;3.75;;
21315;SDS011;10817;55.820;13.030;2023-10-13T00:44:17;16.45;;;3.55;;
21315;SDS011;10817;55.820;13.030;2023-10-13T00:46:51;24.95;;;4.05;;
21315;SDS011;10817;55.820;13.030;2023-10-13T00:49:22;21.40;;;3.92;;
21315;SDS011;10817;55.820;13.030;2023-10-13T00:51:48;15.48;;;3.83;;
21315;SDS011;10817;55.820;13.030;2023-10-13T00:54:16;16.58;;;3.90;;
21315;SDS011;10817;55.820;13.030;2023-10-13T00:56:46;19.52;;;4.03;;
21315;SDS011;10817;55.820;13.030;2023-10-13T00:59:14;22.95;;;4.15;;
21315;SDS011;10817;55.820;13.030;2023-10-13T01:01:41;24.08;;;4.30;;
21315;SDS011;10817;55.820;13.030;2023-10-13T01:04:09;22.67;;;4.15;;
21315;SDS011;10817;55.820;13.030;2023-10-13T01:06:37;29.67;;;4.85;;
21315;SDS011;10817;55.820;13.030;2023-10-13T01:09:05;26.58;;;5.18;;
21315;SDS011;10817;55.820;13.030;2023-10-13T01:11:39;27.08;;;4.55;;
21315;SDS011;10817;55.820;13.030;2023-10-13T01:14:09;15.38;;;3.72;;
21315;SDS011;10817;55.820;13.030;2023-10-13T01:16:36;14.60;;;3.28;;
21315;SDS011;10817;55.820;13.030;2023-10-13T01:19:08;22.15;;;3.80;;
21315;SDS011;10817;55.820;13.030;2023-10-13T01:21:37;19.45;;;4.07;;
21315;SDS011;10817;55.820;13.030;2023-10-13T01:24:07;27.95;;;3.95;;
21315;SDS011;10817;55.820;13.030;2023-10-13T01:26:34;26.67;;;4.57;;
21315;SDS011;10817;55.820;13.030;2023-10-13T01:29:04;21.50;;;4.55;;
21315;SDS011;10817;55.820;13.030;2023-10-13T01:31:39;29.88;;;4.70;;
21315;SDS011;10817;55.820;13.030;2023-10-13T01:34:11;16.67;;;3.97;;
21315;SDS011;10817;55.820;13.030;2023-10-13T01:36:38;15.60;;;3.70;;
21315;SDS011;10817;55.820;13.030;2023-10-13T01:39:07;23.60;;;4.60;;
21315;SDS011;10817;55.820;13.030;2023-10-13T01:41:36;17.08;;;4.07;;
21315;SDS011;10817;55.820;13.030;2023-10-13T01:44:04;21.77;;;3.55;;
21315;SDS011;10817;55.820;13.030;2023-10-13T01:46:30;24.17;;;4.40;;
21315;SDS011;10817;55.820;13.030;2023-10-13T01:49:02;25.50;;;4.15;;
21315;SDS011;10817;55.820;13.030;2023-10-13T01:51:29;36.03;;;6.43;;
21315;SDS011;10817;55.820;13.030;2023-10-13T01:53:56;27.48;;;4.35;;
21315;SDS011;10817;55.820;13.030;2023-10-13T01:56:24;17.00;;;4.07;;
21315;SDS011;10817;55.820;13.030;2023-10-13T01:58:55;25.23;;;4.70;;
21315;SDS011;10817;55.820;13.030;2023-10-13T02:01:21;22.25;;;4.30;;
21315;SDS011;10817;55.820;13.030;2023-10-13T02:03:58;19.85;;;3.45;;
21315;SDS011;10817;55.820;13.030;2023-10-13T02:06:29;19.60;;;3.75;;
21315;SDS011;10817;55.820;13.030;2023-10-13T02:08:59;19.42;;;4.40;;
21315;SDS011;10817;55.820;13.030;2023-10-13T02:11:36;21.02;;;3.50;;
21315;SDS011;10817;55.820;13.030;2023-10-13T02:14:03;17.58;;;3.97;;
21315;SDS011;10817;55.820;13.030;2023-10-13T02:16:30;20.63;;;3.78;;
21315;SDS011;10817;55.820;13.030;2023-10-13T02:18:56;26.90;;;3.88;;
21315;SDS011;10817;55.820;13.030;2023-10-13T02:21:29;21.35;;;4.43;;
21315;SDS011;10817;55.820;13.030;2023-10-13T02:23:57;18.13;;;3.35;;
21315;SDS011;10817;55.820;13.030;2023-10-13T02:26:29;18.95;;;3.53;;
21315;SDS011;10817;55.820;13.030;2023-10-13T02:28:57;21.45;;;3.50;;
21315;SDS011;10817;55.820;13.030;2023-10-13T02:31:27;16.48;;;3.28;;
21315;SDS011;10817;55.820;13.030;2023-10-13T02:33:53;18.20;;;3.55;;
21315;SDS011;10817;55.820;13.030;2023-10-13T02:36:21;17.10;;;3.60;;
21315;SDS011;10817;55.820;13.030;2023-10-13T02:38:48;27.88;;;4.90;;
21315;SDS011;10817;55.820;13.030;2023-10-13T02:41:17;14.23;;;3.67;;
21315;SDS011;10817;55.820;13.030;2023-10-13T02:43:45;21.20;;;3.85;;
21315;SDS011;10817;55.820;13.030;2023-10-13T02:46:14;20.83;;;3.83;;
21315;SDS011;10817;55.820;13.030;2023-10-13T02:48:41;17.98;;;3.97;;
21315;SDS011;10817;55.820;13.030;2023-10-13T02:51:11;19.17;;;3.88;;
21315;SDS011;10817;55.820;13.030;2023-10-13T02:53:42;21.75;;;3.63;;
21315;SDS011;10817;55.820;13.030;2023-10-13T02:56:12;16.33;;;3.70;;
21315;SDS011;10817;55.820;13.030;2023-10-13T02:58:39;16.52;;;3.42;;
21315;SDS011;10817;55.820;13.030;2023-10-13T03:01:11;19.52;;;3.58;;
21315;SDS011;10817;55.820;13.030;2023-10-13T03:03:44;24.08;;;3.75;;
21315;SDS011;10817;55.820;13.030;2023-10-13T03:06:15;23.40;;;3.80;;
21315;SDS011;10817;55.820;13.030;2023-10-13T03:08:42;22.30;;;4.22;;
21315;SDS011;10817;55.820;13.030;2023-10-13T03:11:09;20.17;;;4.32;;
21315;SDS011;10817;55.820;13.030;2023-10-13T03:13:36;17.85;;;3.65;;
21315;SDS011;10817;55.820;13.030;2023-10-13T03:16:12;19.85;;;4.18;;
21315;SDS011;10817;55.820;13.030;2023-10-13T03:18:41;20.15;;;3.78;;
21315;SDS011;10817;55.820;13.030;2023-10-13T03:21:18;15.40;;;3.60;;
21315;SDS011;10817;55.820;13.030;2023-10-13T03:23:54;16.88;;;4.30;;
21315;SDS011;10817;55.820;13.030;2023-10-13T03:26:20;17.98;;;4.05;;
21315;SDS011;10817;55.820;13.030;2023-10-13T03:28:48;19.02;;;3.95;;
21315;SDS011;10817;55.820;13.030;2023-10-13T03:31:18;15.70;;;3.60;;
21315;SDS011;10817;55.820;13.030;2023-10-13T03:33:52;21.52;;;3.88;;
21315;SDS011;10817;55.820;13.030;2023-10-13T03:36:26;24.27;;;4.30;;
21315;SDS011;10817;55.820;13.030;2023-10-13T03:39:11;30.70;;;4.80;;
21315;SDS011;10817;55.820;13.030;2023-10-13T03:41:39;27.95;;;5.40;;
21315;SDS011;10817;55.820;13.030;2023-10-13T03:44:10;27.92;;;4.60;;
21315;SDS011;10817;55.820;13.030;2023-10-13T03:46:43;28.35;;;4.80;;
21315;SDS011;10817;55.820;13.030;2023-10-13T03:49:13;22.83;;;4.63;;
21315;SDS011;10817;55.820;13.030;2023-10-13T03:51:47;25.70;;;4.15;;
21315;SDS011;10817;55.820;13.030;2023-10-13T03:54:15;23.13;;;3.60;;
21315;SDS011;10817;55.820;13.030;2023-10-13T03:56:42;26.50;;;4.28;;
21315;SDS011;10817;55.820;13.030;2023-10-13T03:59:10;25.45;;;4.32;;
21315;SDS011;10817;55.820;13.030;2023-10-13T04:01:44;27.45;;;4.07;;
21315;SDS011;10817;55.820;13.030;2023-10-13T04:04:24;21.90;;;4.68;;
21315;SDS011;10817;55.820;13.030;2023-10-13T04:07:08;13.30;;;3.22;;
21315;SDS011;10817;55.820;13.030;2023-10-13T04:09:53;14.48;;;3.05;;
21315;SDS011;10817;55.820;13.030;2023-10-13T04:12:34;19.20;;;3.38;;
21315;SDS011;10817;55.820;13.030;2023-10-13T04:15:19;15.57;;;3.78;;
21315;SDS011;10817;55.820;13.030;2023-10-13T04:17:52;13.48;;;3.08;;
21315;SDS011;10817;55.820;13.030;2023-10-13T04:20:18;19.50;;;3.05;;
21315;SDS011;10817;55.820;13.030;2023-10-13T04:23:04;26.73;;;6.90;;
21315;SDS011;10817;55.820;13.030;2023-10-13T04:25:48;26.67;;;4.78;;
21315;SDS011;10817;55.820;13.030;2023-10-13T04:28:32;17.38;;;3.97;;
21315;SDS011;10817;55.820;13.030;2023-10-13T04:31:16;19.42;;;4.22;;
21315;SDS011;10817;55.820;13.030;2023-10-13T04:34:06;16.90;;;3.40;;
21315;SDS011;10817;55.820;13.030;2023-10-13T04:36:41;16.33;;;3.78;;
21315;SDS011;10817;55.820;13.030;2023-10-13T04:39:12;21.35;;;3.90;;
21315;SDS011;10817;55.820;13.030;2023-10-13T04:41:54;22.60;;;4.18;;
21315;SDS011;10817;55.820;13.030;2023-10-13T04:44:38;17.98;;;3.67;;
21315;SDS011;10817;55.820;13.030;2023-10-13T04:47:16;18.40;;;3.55;;
21315;SDS011;10817;55.820;13.030;2023-10-13T04:49:46;20.95;;;3.70;;
21315;SDS011;10817;55.820;13.030;2023-10-13T04:52:18;19.42;;;3.65;;
21315;SDS011;10817;55.820;13.030;2023-10-13T04:55:15;16.30;;;3.38;;
21315;SDS011;10817;55.820;13.030;2023-10-13T04:57:57;15.70;;;3.50;;
21315;SDS011;10817;55.820;13.030;2023-10-13T05:00:35;19.58;;;4.45;;
21315;SDS011;10817;55.820;13.030;2023-10-13T05:03:28;20.05;;;4.20;;
21315;SDS011;10817;55.820;13.030;2023-10-13T05:06:33;27.65;;;4.35;;
21315;SDS011;10817;55.820;13.030;2023-10-13T05:09:17;27.83;;;3.95;;
21315;SDS011;10817;55.820;13.030;2023-10-13T05:12:04;19.10;;;4.00;;
21315;SDS011;10817;55.820;13.030;2023-10-13T05:14:48;26.70;;;4.05;;
21315;SDS011;10817;55.820;13.030;2023-10-13T05:17:34;23.00;;;3.65;;
21315;SDS011;10817;55.820;13.030;2023-10-13T05:20:19;23.98;;;4.13;;
21315;SDS011;10817;55.820;13.030;2023-10-13T05:23:04;23.23;;;4.55;;
21315;SDS011;10817;55.820;13.030;2023-10-13T05:25:49;26.13;;;4.55;;
21315;SDS011;10817;55.820;13.030;2023-10-13T05:28:35;25.98;;;4.57;;
21315;SDS011;10817;55.820;13.030;2023-10-13T05:31:20;18.20;;;3.92;;
21315;SDS011;10817;55.820;13.030;2023-10-13T05:34:05;19.02;;;3.47;;
21315;SDS011;10817;55.820;13.030;2023-10-13T05:36:49;21.13;;;4.57;;
21315;SDS011;10817;55.820;13.030;2023-10-13T05:39:34;26.00;;;3.30;;
21315;SDS011;10817;55.820;13.030;2023-10-13T05:42:19;23.88;;;4.03;;
21315;SDS011;10817;55.820;13.030;2023-10-13T05:48:52;18.88;;;4.38;;
21315;SDS011;10817;55.820;13.030;2023-10-13T05:51:45;20.92;;;4.32;;
21315;SDS011;10817;55.820;13.030;2023-10-13T05:54:24;24.58;;;4.20;;
21315;SDS011;10817;55.820;13.030;2023-10-13T05:57:23;24.13;;;4.13;;
21315;SDS011;10817;55.820;13.030;2023-10-13T06:00:09;15.80;;;3.50;;
21315;SDS011;10817;55.820;13.030;2023-10-13T06:02:54;21.50;;;4.00;;
21315;SDS011;10817;55.820;13.030;2023-10-13T06:05:39;20.52;;;3.72;;
21315;SDS011;10817;55.820;13.030;2023-10-13T06:08:25;20.42;;;4.32;;
21315;SDS011;10817;55.820;13.030;2023-10-13T06:11:09;23.52;;;4.20;;
21315;SDS011;10817;55.820;13.030;2023-10-13T06:13:54;23.63;;;4.70;;
21315;SDS011;10817;55.820;13.030;2023-10-13T06:16:39;21.02;;;3.72;;
21315;SDS011;10817;55.820;13.030;2023-10-13T06:19:23;23.20;;;4.15;;
21315;SDS011;10817;55.820;13.030;2023-10-13T06:22:08;28.70;;;4.25;;
21315;SDS011;10817;55.820;13.030;2023-10-13T06:24:54;22.35;;;4.85;;
21315;SDS011;10817;55.820;13.030;2023-10-13T06:27:39;24.48;;;3.30;;
21315;SDS011;10817;55.820;13.030;2023-10-13T06:30:24;17.08;;;3.88;;
21315;SDS011;10817;55.820;13.030;2023-10-13T06:32:51;27.02;;;5.10;;
21315;SDS011;10817;55.820;13.030;2023-10-13T06:35:27;31.60;;;4.00;;
21315;SDS011;10817;55.820;13.030;2023-10-13T06:37:56;25.08;;;4.22;;
21315;SDS011;10817;55.820;13.030;2023-10-13T06:40:27;24.65;;;4.03;;
21315;SDS011;10817;55.820;13.030;2023-10-13T06:42:59;26.15;;;3.97;;
21315;SDS011;10817;55.820;13.030;2023-10-13T06:45:39;20.55;;;3.75;;
21315;SDS011;10817;55.820;13.030;2023-10-13T06:48:07;17.05;;;4.28;;
21315;SDS011;10817;55.820;13.030;2023-10-13T06:50:36;22.58;;;4.05;;
21315;SDS011;10817;55.820;13.030;2023-10-13T06:53:06;28.50;;;4.85;;
21315;SDS011;10817;55.820;13.030;2023-10-13T06:55:38;17.20;;;3.17;;
21315;SDS011;10817;55.820;13.030;2023-10-13T06:58:06;27.48;;;4.07;;
21315;SDS011;10817;55.820;13.030;2023-10-13T07:00:38;17.70;;;4.15;;
21315;SDS011;10817;55.820;13.030;2023-10-13T07:03:18;20.50;;;3.78;;
21315;SDS011;10817;55.820;13.030;2023-10-13T07:05:46;28.15;;;4.10;;
21315;SDS011;10817;55.820;13.030;2023-10-13T07:08:14;24.95;;;4.22;;
21315;SDS011;10817;55.820;13.030;2023-10-13T07:10:50;19.35;;;3.65;;
21315;SDS011;10817;55.820;13.030;2023-10-13T07:13:30;20.65;;;3.22;;
21315;SDS011;10817;55.820;13.030;2023-10-13T07:16:02;22.58;;;4.15;;
21315;SDS011;10817;55.820;13.030;2023-10-13T07:18:37;21.92;;;3.67;;
21315;SDS011;10817;55.820;13.030;2023-10-13T07:21:14;19.95;;;3.95;;
21315;SDS011;10817;55.820;13.030;2023-10-13T07:23:41;21.48;;;4.70;;
21315;SDS011;10817;55.820;13.030;2023-10-13T07:26:16;17.65;;;3.03;;
21315;SDS011;10817;55.820;13.030;2023-10-13T07:28:43;27.88;;;4.07;;
21315;SDS011;10817;55.820;13.030;2023-10-13T07:31:12;24.50;;;3.70;;
21315;SDS011;10817;55.820;13.030;2023-10-13T07:33:40;24.65;;;5.07;;
21315;SDS011;10817;55.820;13.030;2023-10-13T07:36:08;29.50;;;3.75;;
21315;SDS011;10817;55.820;13.030;2023-10-13T07:38:42;18.90;;;3.45;;
21315;SDS011;10817;55.820;13.030;2023-10-13T07:41:13;17.95;;;4.05;;
21315;SDS011;10817;55.820;13.030;2023-10-13T07:43:43;25.02;;;4.30;;
21315;SDS011;10817;55.820;13.030;2023-10-13T07:46:11;16.05;;;3.03;;
21315;SDS011;10817;55.820;13.030;2023-10-13T07:48:38;17.17;;;3.10;;
21315;SDS011;10817;55.820;13.030;2023-10-13T07:51:10;25.55;;;3.75;;
21315;SDS011;10817;55.820;13.030;2023-10-13T07:53:41;25.38;;;3.40;;
21315;SDS011;10817;55.820;13.030;2023-10-13T07:56:09;24.52;;;4.07;;
21315;SDS011;10817;55.820;13.030;2023-10-13T07:58:53;23.00;;;3.80;;
21315;SDS011;10817;55.820;13.030;2023-10-13T08:01:25;20.35;;;2.95;;
21315;SDS011;10817;55.820;13.030;2023-10-13T08:03:52;25.92;;;4.18;;
21315;SDS011;10817;55.820;13.030;2023-10-13T08:06:30;17.10;;;3.72;;
21315;SDS011;10817;55.820;13.030;2023-10-13T08:08:59;22.75;;;3.83;;
21315;SDS011;10817;55.820;13.030;2023-10-13T08:11:34;17.95;;;3.70;;
21315;SDS011;10817;55.820;13.030;2023-10-13T08:14:04;17.30;;;3.20;;
21315;SDS011;10817;55.820;13.030;2023-10-13T08:16:47;22.60;;;4.43;;
21315;SDS011;10817;55.820;13.030;2023-10-13T08:19:24;22.50;;;3.03;;
21315;SDS011;10817;55.820;13.030;2023-10-13T08:21:53;19.40;;;3.58;;
21315;SDS011;10817;55.820;13.030;2023-10-13T08:24:24;23.83;;;3.28;;
21315;SDS011;10817;55.820;13.030;2023-10-13T08:26:54;19.17;;;4.00;;
21315;SDS011;10817;55.820;13.030;2023-10-13T08:29:39;22.45;;;3.97;;
21315;SDS011;10817;55.820;13.030;2023-10-13T08:32:40;19.42;;;3.80;;
21315;SDS011;10817;55.820;13.030;2023-10-13T08:35:20;14.48;;;3.22;;
21315;SDS011;10817;55.820;13.030;2023-10-13T08:38:00;25.00;;;3.33;;
21315;SDS011;10817;55.820;13.030;2023-10-13T08:40:41;23.10;;;4.10;;
21315;SDS011;10817;55.820;13.030;2023-10-13T08:43:42;18.55;;;3.70;;
21315;SDS011;10817;55.820;13.030;2023-10-13T08:46:11;19.33;;;4.55;;
21315;SDS011;10817;55.820;13.030;2023-10-13T08:48:52;19.55;;;3.65;;
21315;SDS011;10817;55.820;13.030;2023-10-13T08:51:32;26.98;;;3.40;;
21315;SDS011;10817;55.820;13.030;2023-10-13T08:54:11;22.38;;;3.70;;
21315;SDS011;10817;55.820;13.030;2023-10-13T08:56:44;11.88;;;3.35;;
21315;SDS011;10817;55.820;13.030;2023-10-13T08:59:20;20.08;;;3.30;;
21315;SDS011;10817;55.820;13.030;2023-10-13T09:02:00;19.88;;;3.92;;
21315;SDS011;10817;55.820;13.030;2023-10-13T09:04:42;24.45;;;3.80;;
21315;SDS011;10817;55.820;13.030;2023-10-13T09:07:09;11.73;;;3.80;;
21315;SDS011;10817;55.820;13.030;2023-10-13T09:09:45;20.10;;;3.67;;
21315;SDS011;10817;55.820;13.030;2023-10-13T09:12:25;24.95;;;5.22;;
21315;SDS011;10817;55.820;13.030;2023-10-13T09:15:02;22.65;;;5.25;;
21315;SDS011;10817;55.820;13.030;2023-10-13T09:17:44;24.38;;;4.57;;
21315;SDS011;10817;55.820;13.030;2023-10-13T09:20:17;15.88;;;4.72;;
21315;SDS011;10817;55.820;13.030;2023-10-13T09:22:58;17.67;;;4.30;;
21315;SDS011;10817;55.820;13.030;2023-10-13T09:25:35;15.48;;;4.15;;
21315;SDS011;10817;55.820;13.030;2023-10-13T09:28:02;12.95;;;4.20;;
21315;SDS011;10817;55.820;13.030;2023-10-13T09:30:35;14.88;;;4.45;;
21315;SDS011;10817;55.820;13.030;2023-10-13T09:33:09;20.17;;;4.47;;
21315;SDS011;10817;55.820;13.030;2023-10-13T09:35:41;18.42;;;4.55;;
21315;SDS011;10817;55.820;13.030;2023-10-13T09:38:14;13.43;;;4.10;;
21315;SDS011;10817;55.820;13.030;2023-10-13T09:40:40;19.13;;;4.68;;
21315;SDS011;10817;55.820;13.030;2023-10-13T09:43:11;11.65;;;4.70;;
21315;SDS011;10817;55.820;13.030;2023-10-13T09:45:40;12.43;;;4.30;;
21315;SDS011;10817;55.820;13.030;2023-10-13T09:48:10;10.70;;;4.45;;
21315;SDS011;10817;55.820;13.030;2023-10-13T09:50:42;15.68;;;5.10;;
21315;SDS011;10817;55.820;13.030;2023-10-13T09:53:09;9.60;;;4.30;;
21315;SDS011;10817;55.820;13.030;2023-10-13T09:55:40;9.10;;;4.68;;
21315;SDS011;10817;55.820;13.030;2023-10-13T09:58:10;9.10;;;4.85;;
21315;SDS011;10817;55.820;13.030;2023-10-13T10:00:40;11.20;;;5.15;;
21315;SDS011;10817;55.820;13.030;2023-10-13T10:03:13;23.25;;;5.85;;
21315;SDS011;10817;55.820;13.030;2023-10-13T10:05:58;11.52;;;5.80;;
21315;SDS011;10817;55.820;13.030;2023-10-13T10:08:38;15.70;;;6.38;;
21315;SDS011;10817;55.820;13.030;2023-10-13T10:11:19;10.20;;;5.72;;
21315;SDS011;10817;55.820;13.030;2023-10-13T10:13:52;19.52;;;7.32;;
21315;SDS011;10817;55.820;13.030;2023-10-13T10:16:24;22.90;;;8.38;;
21315;SDS011;10817;55.820;13.030;2023-10-13T10:19:02;19.08;;;9.13;;
21315;SDS011;10817;55.820;13.030;2023-10-13T10:21:33;23.42;;;9.98;;
21315;SDS011;10817;55.820;13.030;2023-10-13T10:24:00;25.10;;;9.98;;
21315;SDS011;10817;55.820;13.030;2023-10-13T10:26:38;32.00;;;11.85;;
21315;SDS011;10817;55.820;13.030;2023-10-13T10:29:10;25.20;;;10.75;;
21315;SDS011;10817;55.820;13.030;2023-10-13T10:31:40;27.08;;;11.65;;
21315;SDS011;10817;55.820;13.030;2023-10-13T10:34:13;27.83;;;11.15;;
21315;SDS011;10817;55.820;13.030;2023-10-13T10:36:45;31.38;;;11.75;;
21315;SDS011;10817;55.820;13.030;2023-10-13T10:39:16;31.80;;;12.32;;
21315;SDS011;10817;55.820;13.030;2023-10-13T10:41:44;30.95;;;12.30;;
21315;SDS011;10817;55.820;13.030;2023-10-13T10:44:19;30.92;;;12.52;;
21315;SDS011;10817;55.820;13.030;2023-10-13T10:46:51;26.17;;;12.20;;
21315;SDS011;10817;55.820;13.030;2023-10-13T10:49:24;37.00;;;12.80;;
21315;SDS011;10817;55.820;13.030;2023-10-13T10:51:58;35.83;;;12.20;;
21315;SDS011;10817;55.820;13.030;2023-10-13T10:54:29;28.23;;;12.15;;
21315;SDS011;10817;55.820;13.030;2023-10-13T10:57:02;30.88;;;13.07;;
21315;SDS011;10817;55.820;13.030;2023-10-13T10:59:37;34.95;;;12.80;;
21315;SDS011;10817;55.820;13.030;2023-10-13T11:02:08;38.38;;;12.30;;
21315;SDS011;10817;55.820;13.030;2023-10-13T11:04:41;36.85;;;14.07;;
21315;SDS011;10817;55.820;13.030;2023-10-13T11:07:20;35.72;;;12.48;;
21315;SDS011;10817;55.820;13.030;2023-10-13T11:09:50;37.17;;;12.70;;
21315;SDS011;10817;55.820;13.030;2023-10-13T11:12:55;39.20;;;15.32;;
21315;SDS011;10817;55.820;13.030;2023-10-13T11:16:06;42.40;;;15.48;;
21315;SDS011;10817;55.820;13.030;2023-10-13T11:19:05;41.00;;;15.68;;
21315;SDS011;10817;55.820;13.030;2023-10-13T11:21:34;41.50;;;15.52;;
21315;SDS011;10817;55.820;13.030;2023-10-13T11:24:02;58.72;;;16.73;;
21315;SDS011;10817;55.820;13.030;2023-10-13T11:26:34;43.83;;;16.92;;
21315;SDS011;10817;55.820;13.030;2023-10-13T11:29:01;46.70;;;16.95;;
21315;SDS011;10817;55.820;13.030;2023-10-13T11:31:35;47.40;;;16.38;;
21315;SDS011;10817;55.820;13.030;2023-10-13T11:34:03;38.60;;;15.77;;
21315;SDS011;10817;55.820;13.030;2023-10-13T11:36:33;37.38;;;14.50;;
21315;SDS011;10817;55.820;13.030;2023-10-13T11:39:00;36.45;;;15.55;;
21315;SDS011;10817;55.820;13.030;2023-10-13T11:41:27;36.67;;;14.63;;
21315;SDS011;10817;55.820;13.030;2023-10-13T11:43:59;38.55;;;14.82;;
21315;SDS011;10817;55.820;13.030;2023-10-13T11:46:46;25.85;;;13.05;;
21315;SDS011;10817;55.820;13.030;2023-10-13T11:49:33;30.25;;;12.68;;
21315;SDS011;10817;55.820;13.030;2023-10-13T11:52:03;25.20;;;12.75;;
21315;SDS011;10817;55.820;13.030;2023-10-13T11:54:43;31.70;;;12.13;;
21315;SDS011;10817;55.820;13.030;2023-10-13T11:57:12;27.52;;;12.45;;
21315;SDS011;10817;55.820;13.030;2023-10-13T11:59:44;24.35;;;10.20;;
21315;SDS011;10817;55.820;13.030;2023-10-13T12:02:21;26.60;;;11.80;;
21315;SDS011;10817;55.820;13.030;2023-10-13T12:05:06;24.35;;;11.30;;
21315;SDS011;10817;55.820;13.030;2023-10-13T12:07:43;23.67;;;11.30;;
21315;SDS011;10817;55.820;13.030;2023-10-13T12:10:16;25.73;;;12.10;;
21315;SDS011;10817;55.820;13.030;2023-10-13T12:13:00;22.80;;;10.27;;
21315;SDS011;10817;55.820;13.030;2023-10-13T12:15:33;24.23;;;11.90;;
21315;SDS011;10817;55.820;13.030;2023-10-13T12:18:13;18.25;;;10.75;;
21315;SDS011;10817;55.820;13.030;2023-10-13T12:20:40;22.08;;;10.85;;
21315;SDS011;10817;55.820;13.030;2023-10-13T12:23:12;25.90;;;11.35;;
21315;SDS011;10817;55.820;13.030;2023-10-13T12:25:47;25.10;;;10.77;;
21315;SDS011;10817;55.820;13.030;2023-10-13T12:28:25;26.08;;;10.40;;
21315;SDS011;10817;55.820;13.030;2023-10-13T12:30:54;17.13;;;9.75;;
21315;SDS011;10817;55.820;13.030;2023-10-13T12:33:22;20.42;;;9.27;;
21315;SDS011;10817;55.820;13.030;2023-10-13T12:35:54;21.13;;;9.95;;
21315;SDS011;10817;55.820;13.030;2023-10-13T12:38:39;15.95;;;8.15;;
21315;SDS011;10817;55.820;13.030;2023-10-13T12:41:24;16.52;;;8.75;;
21315;SDS011;10817;55.820;13.030;2023-10-13T12:44:09;10.43;;;6.22;;
21315;SDS011;10817;55.820;13.030;2023-10-13T12:46:50;12.80;;;6.47;;
21315;SDS011;10817;55.820;13.030;2023-10-13T12:49:36;11.45;;;6.80;;
21315;SDS011;10817;55.820;13.030;2023-10-13T12:52:17;14.60;;;6.35;;
21315;SDS011;10817;55.820;13.030;2023-10-13T12:54:46;11.88;;;6.43;;
21315;SDS011;10817;55.820;13.030;2023-10-13T12:57:24;14.85;;;7.13;;
21315;SDS011;10817;55.820;13.030;2023-10-13T12:59:51;13.55;;;6.85;;
21315;SDS011;10817;55.820;13.030;2023-10-13T13:02:19;12.45;;;7.22;;
21315;SDS011;10817;55.820;13.030;2023-10-13T13:04:47;13.38;;;7.38;;
21315;SDS011;10817;55.820;13.030;2023-10-13T13:07:19;15.00;;;8.57;;
21315;SDS011;10817;55.820;13.030;2023-10-13T13:09:48;18.27;;;9.40;;
21315;SDS011;10817;55.820;13.030;2023-10-13T13:12:15;16.42;;;9.52;;
21315;SDS011;10817;55.820;13.030;2023-10-13T13:14:42;24.05;;;11.38;;
21315;SDS011;10817;55.820;13.030;2023-10-13T13:17:11;26.17;;;10.02;;
21315;SDS011;10817;55.820;13.030;2023-10-13T13:19:38;17.27;;;10.73;;
21315;SDS011;10817;55.820;13.030;2023-10-13T13:22:06;23.17;;;10.98;;
21315;SDS011;10817;55.820;13.030;2023-10-13T13:24:37;25.33;;;10.80;;
21315;SDS011;10817;55.820;13.030;2023-10-13T13:27:10;27.42;;;10.85;;
21315;SDS011;10817;55.820;13.030;2023-10-13T13:29:39;19.73;;;9.55;;
21315;SDS011;10817;55.820;13.030;2023-10-13T13:32:06;21.15;;;9.20;;
21315;SDS011;10817;55.820;13.030;2023-10-13T13:34:42;22.27;;;10.20;;
21315;SDS011;10817;55.820;13.030;2023-10-13T13:37:10;24.77;;;10.70;;
21315;SDS011;10817;55.820;13.030;2023-10-13T13:39:38;20.70;;;10.32;;
21315;SDS011;10817;55.820;13.030;2023-10-13T13:42:12;20.90;;;10.77;;
21315;SDS011;10817;55.820;13.030;2023-10-13T13:44:42;22.50;;;10.05;;
21315;SDS011;10817;55.820;13.030;2023-10-13T13:47:11;16.95;;;9.88;;
21315;SDS011;10817;55.820;13.030;2023-10-13T13:49:39;23.00;;;10.27;;
21315;SDS011;10817;55.820;13.030;2023-10-13T13:52:11;22.02;;;10.15;;
21315;SDS011;10817;55.820;13.030;2023-10-13T13:54:43;17.90;;;9.57;;
21315;SDS011;10817;55.820;13.030;2023-10-13T13:57:11;22.00;;;9.65;;
21315;SDS011;10817;55.820;13.030;2023-10-13T13:59:39;17.05;;;9.27;;
21315;SDS011;10817;55.820;13.030;2023-10-13T14:02:10;28.30;;;10.70;;
21315;SDS011;10817;55.820;13.030;2023-10-13T14:04:45;20.75;;;9.65;;
21315;SDS011;10817;55.820;13.030;2023-10-13T14:07:15;17.13;;;9.27;;
21315;SDS011;10817;55.820;13.030;2023-10-13T14:09:44;21.30;;;9.88;;
21315;SDS011;10817;55.820;13.030;2023-10-13T14:12:17;23.80;;;10.40;;
21315;SDS011;10817;55.820;13.030;2023-10-13T14:15:06;23.83;;;10.27;;
21315;SDS011;10817;55.820;13.030;2023-10-13T14:17:44;23.90;;;10.23;;
21315;SDS011;10817;55.820;13.030;2023-10-13T14:20:14;18.50;;;10.07;;
21315;SDS011;10817;55.820;13.030;2023-10-13T14:22:43;29.77;;;11.07;;
21315;SDS011;10817;55.820;13.030;2023-10-13T14:25:12;25.00;;;10.43;;
21315;SDS011;10817;55.820;13.030;2023-10-13T14:27:41;21.08;;;10.95;;
21315;SDS011;10817;55.820;13.030;2023-10-13T14:30:08;25.50;;;11.00;;
21315;SDS011;10817;55.820;13.030;2023-10-13T14:32:44;24.52;;;11.13;;
21315;SDS011;10817;55.820;13.030;2023-10-13T14:35:11;23.05;;;11.77;;
21315;SDS011;10817;55.820;13.030;2023-10-13T14:37:40;32.25;;;12.88;;
21315;SDS011;10817;55.820;13.030;2023-10-13T14:40:08;32.38;;;12.32;;
21315;SDS011;10817;55.820;13.030;2023-10-13T14:42:38;30.55;;;12.07;;
21315;SDS011;10817;55.820;13.030;2023-10-13T14:45:08;36.25;;;12.98;;
21315;SDS011;10817;55.820;13.030;2023-10-13T14:47:42;32.40;;;13.45;;
21315;SDS011;10817;55.820;13.030;2023-10-13T14:50:09;33.17;;;13.40;;
21315;SDS011;10817;55.820;13.030;2023-10-13T14:52:42;30.25;;;12.52;;
21315;SDS011;10817;55.820;13.030;2023-10-13T14:55:09;31.45;;;12.45;;
21315;SDS011;10817;55.820;13.030;2023-10-13T14:57:44;30.52;;;11.73;;
21315;SDS011;10817;55.820;13.030;2023-10-13T15:00:14;33.65;;;13.55;;
21315;SDS011;10817;55.820;13.030;2023-10-13T15:02:50;51.47;;;15.93;;